sensor_id;sensor_type;location;lat;lon;timestamp;P1;durP1;ratioP1;P2;durP2;ratioP2
1949;SDS011;975;48.760;9.152;2023-06-22T01:11:00;7.47;;;4.63;;
1949;SDS011;975;48.760;9.152;2023-06-22T01:13:31;10.45;;;5.18;;
1949;SDS011;975;48.760;9.152;2023-06-22T01:16:00;7.45;;;4.50;;
1949;SDS011;975;48.760;9.152;2023-06-22T01:18:29;9.00;;;4.82;;
1949;SDS011;975;48.760;9.152;2023-06-22T01:20:58;7.88;;;4.25;;
1949;SDS011;975;48.760;9.152;2023-06-22T01:23:29;9.85;;;4.18;;
1949;SDS011;975;48.760;9.152;2023-06-22T01:26:05;7.28;;;4.10;;
1949;SDS011;975;48.760;9.152;2023-06-22T01:28:44;7.03;;;4.20;;
1949;SDS011;975;48.760;9.152;2023-06-22T01:31:13;9.13;;;4.43;;
1949;SDS011;975;48.760;9.152;2023-06-22T01:33:42;7.68;;;3.90;;
1949;SDS011;975;48.760;9.152;2023-06-22T01:36:10;8.15;;;4.43;;
1949;SDS011;975;48.760;9.152;2023-06-22T01:38:37;7.38;;;4.45;;
1949;SDS011;975;48.760;9.152;2023-06-22T01:41:05;7.95;;;4.40;;
1949;SDS011;975;48.760;9.152;2023-06-22T01:43:33;8.50;;;4.68;;
1949;SDS011;975;48.760;9.152;2023-06-22T01:46:02;8.50;;;5.07;;
1949;SDS011;975;48.760;9.152;2023-06-22T01:48:30;8.98;;;4.80;;
1949;SDS011;975;48.760;9.152;2023-06-22T01:50:58;8.38;;;4.57;;
1949;SDS011;975;48.760;9.152;2023-06-22T01:53:25;6.45;;;4.20;;
1949;SDS011;975;48.760;9.152;2023-06-22T01:55:53;7.93;;;4.22;;
1949;SDS011;975;48.760;9.152;2023-06-22T01:58:21;10.63;;;4.78;;
1949;SDS011;975;48.760;9.152;2023-06-22T02:00:50;7.65;;;5.15;;
1949;SDS011;975;48.760;9.152;2023-06-22T02:03:22;8.02;;;4.43;;
1949;SDS011;975;48.760;9.152;2023-06-22T02:08:17;8.50;;;4.65;;
1949;SDS011;975;48.760;9.152;2023-06-22T02:10:46;7.85;;;4.10;;
1949;SDS011;975;48.760;9.152;2023-06-22T02:13:14;7.32;;;4.57;;
1949;SDS011;975;48.760;9.152;2023-06-22T02:15:42;7.25;;;4.38;;
1949;SDS011;975;48.760;9.152;2023-06-22T02:18:10;11.00;;;4.70;;
1949;SDS011;975;48.760;9.152;2023-06-22T02:20:40;7.40;;;4.40;;
1949;SDS011;975;48.760;9.152;2023-06-22T02:23:07;8.85;;;4.50;;
1949;SDS011;975;48.760;9.152;2023-06-22T02:25:35;10.63;;;4.68;;
1949;SDS011;975;48.760;9.152;2023-06-22T02:28:02;6.80;;;4.50;;
1949;SDS011;975;48.760;9.152;2023-06-22T02:30:30;7.28;;;4.53;;
1949;SDS011;975;48.760;9.152;2023-06-22T02:32:57;8.27;;;4.18;;
1949;SDS011;975;48.760;9.152;2023-06-22T02:35:25;7.95;;;4.30;;
1949;SDS011;975;48.760;9.152;2023-06-22T02:37:58;9.45;;;4.70;;
1949;SDS011;975;48.760;9.152;2023-06-22T02:40:26;9.20;;;4.43;;
1949;SDS011;975;48.760;9.152;2023-06-22T02:42:53;6.72;;;4.40;;
1949;SDS011;975;48.760;9.152;2023-06-22T02:45:21;8.10;;;4.53;;
1949;SDS011;975;48.760;9.152;2023-06-22T02:47:48;7.03;;;4.32;;
1949;SDS011;975;48.760;9.152;2023-06-22T02:50:15;8.23;;;4.25;;
1949;SDS011;975;48.760;9.152;2023-06-22T02:52:46;7.97;;;4.18;;
1949;SDS011;975;48.760;9.152;2023-06-22T02:55:15;6.75;;;4.55;;
1949;SDS011;975;48.760;9.152;2023-06-22T02:57:42;9.60;;;4.75;;
1949;SDS011;975;48.760;9.152;2023-06-22T03:00:12;9.63;;;4.75;;
1949;SDS011;975;48.760;9.152;2023-06-22T03:02:42;8.77;;;4.47;;
1949;SDS011;975;48.760;9.152;2023-06-22T03:05:10;7.50;;;4.85;;
1949;SDS011;975;48.760;9.152;2023-06-22T03:07:39;9.13;;;5.13;;
1949;SDS011;975;48.760;9.152;2023-06-22T03:10:07;8.82;;;4.35;;
1949;SDS011;975;48.760;9.152;2023-06-22T03:12:37;6.90;;;3.97;;
1949;SDS011;975;48.760;9.152;2023-06-22T03:15:05;8.07;;;4.28;;
1949;SDS011;975;48.760;9.152;2023-06-22T03:17:33;7.03;;;4.20;;
1949;SDS011;975;48.760;9.152;2023-06-22T03:20:00;9.13;;;4.68;;
1949;SDS011;975;48.760;9.152;2023-06-22T03:22:32;6.47;;;4.13;;
1949;SDS011;975;48.760;9.152;2023-06-22T03:24:59;7.60;;;4.30;;
1949;SDS011;975;48.760;9.152;2023-06-22T03:27:27;8.48;;;4.80;;
1949;SDS011;975;48.760;9.152;2023-06-22T03:29:57;7.05;;;3.90;;
1949;SDS011;975;48.760;9.152;2023-06-22T03:32:25;7.43;;;3.97;;
1949;SDS011;975;48.760;9.152;2023-06-22T03:34:53;7.88;;;4.00;;
1949;SDS011;975;48.760;9.152;2023-06-22T03:37:24;8.82;;;4.70;;
1949;SDS011;975;48.760;9.152;2023-06-22T03:39:52;8.35;;;4.20;;
1949;SDS011;975;48.760;9.152;2023-06-22T03:42:19;7.03;;;4.20;;
1949;SDS011;975;48.760;9.152;2023-06-22T03:44:47;9.07;;;4.28;;
1949;SDS011;975;48.760;9.152;2023-06-22T03:47:16;9.60;;;4.32;;
1949;SDS011;975;48.760;9.152;2023-06-22T03:49:43;7.60;;;4.18;;
1949;SDS011;975;48.760;9.152;2023-06-22T03:52:11;9.98;;;4.57;;
1949;SDS011;975;48.760;9.152;2023-06-22T03:54:38;7.55;;;4.65;;
1949;SDS011;975;48.760;9.152;2023-06-22T03:57:05;7.13;;;4.63;;
1949;SDS011;975;48.760;9.152;2023-06-22T03:59:33;7.88;;;4.65;;
1949;SDS011;975;48.760;9.152;2023-06-22T04:02:00;6.53;;;4.65;;
1949;SDS011;975;48.760;9.152;2023-06-22T04:04:29;7.97;;;4.35;;
1949;SDS011;975;48.760;9.152;2023-06-22T04:06:57;8.70;;;4.60;;
1949;SDS011;975;48.760;9.152;2023-06-22T04:09:24;6.57;;;4.07;;
1949;SDS011;975;48.760;9.152;2023-06-22T04:11:51;7.78;;;4.72;;
1949;SDS011;975;48.760;9.152;2023-06-22T04:14:19;9.10;;;4.75;;
1949;SDS011;975;48.760;9.152;2023-06-22T04:16:47;7.53;;;4.38;;
1949;SDS011;975;48.760;9.152;2023-06-22T04:19:15;8.35;;;4.80;;
1949;SDS011;975;48.760;9.152;2023-06-22T04:21:44;6.60;;;4.35;;
1949;SDS011;975;48.760;9.152;2023-06-22T04:24:13;6.80;;;4.30;;
1949;SDS011;975;48.760;9.152;2023-06-22T04:26:41;8.38;;;4.57;;
1949;SDS011;975;48.760;9.152;2023-06-22T04:29:10;11.35;;;4.88;;
1949;SDS011;975;48.760;9.152;2023-06-22T04:31:38;9.32;;;4.80;;
1949;SDS011;975;48.760;9.152;2023-06-22T04:34:06;10.45;;;4.35;;
1949;SDS011;975;48.760;9.152;2023-06-22T04:36:34;8.82;;;4.70;;
1949;SDS011;975;48.760;9.152;2023-06-22T04:39:05;9.07;;;4.50;;
1949;SDS011;975;48.760;9.152;2023-06-22T04:41:35;8.82;;;4.35;;
1949;SDS011;975;48.760;9.152;2023-06-22T04:44:09;6.55;;;3.97;;
1949;SDS011;975;48.760;9.152;2023-06-22T04:46:36;7.68;;;4.72;;
1949;SDS011;975;48.760;9.152;2023-06-22T04:49:05;9.10;;;4.75;;
1949;SDS011;975;48.760;9.152;2023-06-22T04:51:37;9.13;;;4.78;;
1949;SDS011;975;48.760;9.152;2023-06-22T04:54:24;6.60;;;4.50;;
1949;SDS011;975;48.760;9.152;2023-06-22T04:56:51;9.27;;;5.30;;
1949;SDS011;975;48.760;9.152;2023-06-22T04:59:21;7.10;;;4.32;;
1949;SDS011;975;48.760;9.152;2023-06-22T05:01:53;9.75;;;4.93;;
1949;SDS011;975;48.760;9.152;2023-06-22T05:04:21;8.32;;;5.00;;
1949;SDS011;975;48.760;9.152;2023-06-22T05:06:49;8.63;;;5.00;;
1949;SDS011;975;48.760;9.152;2023-06-22T05:09:17;7.30;;;4.32;;
1949;SDS011;975;48.760;9.152;2023-06-22T05:11:46;7.68;;;5.07;;
1949;SDS011;975;48.760;9.152;2023-06-22T05:14:13;11.18;;;5.45;;
1949;SDS011;975;48.760;9.152;2023-06-22T05:16:41;8.80;;;5.28;;
1949;SDS011;975;48.760;9.152;2023-06-22T05:19:09;8.68;;;5.03;;
1949;SDS011;975;48.760;9.152;2023-06-22T05:21:36;10.15;;;5.47;;
1949;SDS011;975;48.760;9.152;2023-06-22T05:24:04;9.13;;;5.10;;
1949;SDS011;975;48.760;9.152;2023-06-22T05:26:33;10.25;;;5.72;;
1949;SDS011;975;48.760;9.152;2023-06-22T05:29:02;14.63;;;6.40;;
1949;SDS011;975;48.760;9.152;2023-06-22T05:31:30;14.70;;;6.15;;
1949;SDS011;975;48.760;9.152;2023-06-22T05:33:57;16.67;;;5.97;;
1949;SDS011;975;48.760;9.152;2023-06-22T05:36:26;20.52;;;6.25;;
1949;SDS011;975;48.760;9.152;2023-06-22T05:38:56;9.38;;;5.55;;
1949;SDS011;975;48.760;9.152;2023-06-22T05:43:50;9.73;;;5.75;;
1949;SDS011;975;48.760;9.152;2023-06-22T05:46:22;11.35;;;5.95;;
1949;SDS011;975;48.760;9.152;2023-06-22T05:48:50;11.77;;;5.32;;
1949;SDS011;975;48.760;9.152;2023-06-22T05:51:17;13.57;;;5.63;;
1949;SDS011;975;48.760;9.152;2023-06-22T05:53:44;8.05;;;4.93;;
1949;SDS011;975;48.760;9.152;2023-06-22T05:58:42;10.77;;;5.05;;
1949;SDS011;975;48.760;9.152;2023-06-22T06:01:09;8.45;;;4.68;;
1949;SDS011;975;48.760;9.152;2023-06-22T06:03:38;10.43;;;5.20;;
1949;SDS011;975;48.760;9.152;2023-06-22T06:06:06;9.18;;;5.05;;
1949;SDS011;975;48.760;9.152;2023-06-22T06:08:33;8.95;;;4.40;;
1949;SDS011;975;48.760;9.152;2023-06-22T06:11:01;12.38;;;5.53;;
1949;SDS011;975;48.760;9.152;2023-06-22T06:13:28;11.43;;;5.28;;
1949;SDS011;975;48.760;9.152;2023-06-22T06:15:56;9.25;;;5.75;;
1949;SDS011;975;48.760;9.152;2023-06-22T06:18:24;8.27;;;4.47;;
1949;SDS011;975;48.760;9.152;2023-06-22T06:20:53;12.95;;;5.20;;
1949;SDS011;975;48.760;9.152;2023-06-22T06:23:21;10.30;;;5.13;;
1949;SDS011;975;48.760;9.152;2023-06-22T06:25:48;8.93;;;4.43;;
1949;SDS011;975;48.760;9.152;2023-06-22T06:28:15;13.68;;;5.43;;
1949;SDS011;975;48.760;9.152;2023-06-22T06:30:43;9.60;;;5.10;;
1949;SDS011;975;48.760;9.152;2023-06-22T06:33:12;9.52;;;4.75;;
1949;SDS011;975;48.760;9.152;2023-06-22T06:35:40;10.40;;;4.13;;
1949;SDS011;975;48.760;9.152;2023-06-22T06:38:08;11.63;;;4.25;;
1949;SDS011;975;48.760;9.152;2023-06-22T06:40:36;8.00;;;3.97;;
1949;SDS011;975;48.760;9.152;2023-06-22T06:43:03;13.15;;;6.28;;
1949;SDS011;975;48.760;9.152;2023-06-22T06:45:31;9.65;;;4.47;;
1949;SDS011;975;48.760;9.152;2023-06-22T06:48:00;9.38;;;4.80;;
1949;SDS011;975;48.760;9.152;2023-06-22T06:50:27;8.68;;;4.53;;
1949;SDS011;975;48.760;9.152;2023-06-22T06:52:55;9.20;;;4.65;;
1949;SDS011;975;48.760;9.152;2023-06-22T06:55:25;8.10;;;4.65;;
1949;SDS011;975;48.760;9.152;2023-06-22T06:57:58;9.15;;;5.60;;
1949;SDS011;975;48.760;9.152;2023-06-22T07:00:25;8.95;;;4.85;;
1949;SDS011;975;48.760;9.152;2023-06-22T07:02:53;8.57;;;4.40;;
1949;SDS011;975;48.760;9.152;2023-06-22T07:05:20;9.90;;;4.72;;
1949;SDS011;975;48.760;9.152;2023-06-22T07:07:48;7.63;;;3.90;;
1949;SDS011;975;48.760;9.152;2023-06-22T07:10:15;9.90;;;4.20;;
1949;SDS011;975;48.760;9.152;2023-06-22T07:12:44;8.05;;;4.47;;
1949;SDS011;975;48.760;9.152;2023-06-22T07:15:12;7.50;;;4.22;;
1949;SDS011;975;48.760;9.152;2023-06-22T07:17:39;7.45;;;4.03;;
1949;SDS011;975;48.760;9.152;2023-06-22T07:20:07;8.77;;;3.90;;
1949;SDS011;975;48.760;9.152;2023-06-22T07:22:37;6.88;;;3.85;;
1949;SDS011;975;48.760;9.152;2023-06-22T07:25:05;6.97;;;4.38;;
1949;SDS011;975;48.760;9.152;2023-06-22T07:27:36;9.15;;;3.83;;
1949;SDS011;975;48.760;9.152;2023-06-22T07:30:05;10.65;;;4.28;;
1949;SDS011;975;48.760;9.152;2023-06-22T07:32:33;5.68;;;3.67;;
1949;SDS011;975;48.760;9.152;2023-06-22T07:35:01;8.73;;;4.07;;
1949;SDS011;975;48.760;9.152;2023-06-22T07:37:30;9.55;;;3.92;;
1949;SDS011;975;48.760;9.152;2023-06-22T07:39:58;9.07;;;4.20;;
1949;SDS011;975;48.760;9.152;2023-06-22T07:42:26;7.45;;;3.35;;
1949;SDS011;975;48.760;9.152;2023-06-22T07:44:58;8.48;;;3.13;;
1949;SDS011;975;48.760;9.152;2023-06-22T07:47:27;6.13;;;3.38;;
1949;SDS011;975;48.760;9.152;2023-06-22T07:49:54;8.98;;;3.58;;
1949;SDS011;975;48.760;9.152;2023-06-22T07:52:23;13.15;;;3.60;;
1949;SDS011;975;48.760;9.152;2023-06-22T07:54:51;6.50;;;3.40;;
1949;SDS011;975;48.760;9.152;2023-06-22T07:57:19;5.97;;;3.17;;
1949;SDS011;975;48.760;9.152;2023-06-22T07:59:46;5.97;;;3.90;;
1949;SDS011;975;48.760;9.152;2023-06-22T08:02:14;6.50;;;3.50;;
1949;SDS011;975;48.760;9.152;2023-06-22T08:04:43;7.85;;;3.67;;
1949;SDS011;975;48.760;9.152;2023-06-22T08:07:11;7.93;;;3.20;;
1949;SDS011;975;48.760;9.152;2023-06-22T11:34:58;12.20;;;4.97;;
1949;SDS011;975;48.760;9.152;2023-06-22T11:37:26;9.63;;;5.07;;
1949;SDS011;975;48.760;9.152;2023-06-22T11:39:54;6.43;;;4.18;;
1949;SDS011;975;48.760;9.152;2023-06-22T11:42:21;8.38;;;4.20;;
1949;SDS011;975;48.760;9.152;2023-06-22T11:44:55;8.30;;;4.50;;
1949;SDS011;975;48.760;9.152;2023-06-22T11:47:26;6.75;;;4.18;;
1949;SDS011;975;48.760;9.152;2023-06-22T11:49:54;8.32;;;3.92;;
1949;SDS011;975;48.760;9.152;2023-06-22T11:52:23;10.77;;;4.28;;
1949;SDS011;975;48.760;9.152;2023-06-22T11:54:52;10.52;;;4.82;;
1949;SDS011;975;48.760;9.152;2023-06-22T11:57:20;10.38;;;4.45;;
1949;SDS011;975;48.760;9.152;2023-06-22T11:59:48;6.28;;;4.45;;
1949;SDS011;975;48.760;9.152;2023-06-22T12:02:15;12.75;;;5.03;;
1949;SDS011;975;48.760;9.152;2023-06-22T12:04:46;12.77;;;4.38;;
1949;SDS011;975;48.760;9.152;2023-06-22T12:07:13;7.10;;;4.32;;
1949;SDS011;975;48.760;9.152;2023-06-22T12:09:43;7.80;;;4.03;;
1949;SDS011;975;48.760;9.152;2023-06-22T12:12:11;9.73;;;5.30;;
1949;SDS011;975;48.760;9.152;2023-06-22T12:14:41;9.10;;;4.50;;
1949;SDS011;975;48.760;9.152;2023-06-22T12:17:09;13.30;;;4.60;;
1949;SDS011;975;48.760;9.152;2023-06-22T12:19:39;7.50;;;4.65;;
1949;SDS011;975;48.760;9.152;2023-06-22T12:22:07;13.43;;;5.60;;
1949;SDS011;975;48.760;9.152;2023-06-22T12:28:14;8.85;;;4.80;;
1949;SDS011;975;48.760;9.152;2023-06-22T12:30:41;11.10;;;5.40;;
1949;SDS011;975;48.760;9.152;2023-06-22T12:33:09;10.50;;;5.43;;
1949;SDS011;975;48.760;9.152;2023-06-22T12:35:36;7.68;;;4.65;;
1949;SDS011;975;48.760;9.152;2023-06-22T12:38:04;7.78;;;4.40;;
1949;SDS011;975;48.760;9.152;2023-06-22T12:40:42;9.32;;;4.75;;
1949;SDS011;975;48.760;9.152;2023-06-22T12:43:17;11.85;;;5.28;;
1949;SDS011;975;48.760;9.152;2023-06-22T12:45:44;8.40;;;4.13;;
1949;SDS011;975;48.760;9.152;2023-06-22T12:48:12;11.00;;;4.68;;
1949;SDS011;975;48.760;9.152;2023-06-22T12:50:40;10.73;;;4.88;;
1949;SDS011;975;48.760;9.152;2023-06-22T12:53:07;7.80;;;5.05;;
1949;SDS011;975;48.760;9.152;2023-06-22T12:55:38;7.65;;;4.45;;
1949;SDS011;975;48.760;9.152;2023-06-22T12:58:08;12.70;;;4.80;;
1949;SDS011;975;48.760;9.152;2023-06-22T13:00:37;13.80;;;5.30;;
1949;SDS011;975;48.760;9.152;2023-06-22T13:03:05;9.82;;;4.40;;
1949;SDS011;975;48.760;9.152;2023-06-22T13:05:35;10.02;;;4.35;;
1949;SDS011;975;48.760;9.152;2023-06-22T13:08:03;9.80;;;4.63;;
1949;SDS011;975;48.760;9.152;2023-06-22T13:10:37;7.97;;;3.92;;
1949;SDS011;975;48.760;9.152;2023-06-22T13:13:05;14.13;;;5.35;;
1949;SDS011;975;48.760;9.152;2023-06-22T13:15:43;11.70;;;4.70;;
1949;SDS011;975;48.760;9.152;2023-06-22T13:18:10;11.80;;;5.57;;
1949;SDS011;975;48.760;9.152;2023-06-22T13:20:38;11.88;;;4.68;;
1949;SDS011;975;48.760;9.152;2023-06-22T13:23:05;10.82;;;5.28;;
1949;SDS011;975;48.760;9.152;2023-06-22T13:25:36;9.32;;;4.80;;
1949;SDS011;975;48.760;9.152;2023-06-22T13:28:04;13.93;;;4.70;;
1949;SDS011;975;48.760;9.152;2023-06-22T13:30:32;12.15;;;4.68;;
1949;SDS011;975;48.760;9.152;2023-06-22T13:33:01;10.52;;;4.78;;
1949;SDS011;975;48.760;9.152;2023-06-22T13:35:28;11.45;;;4.88;;
1949;SDS011;975;48.760;9.152;2023-06-22T13:37:56;10.75;;;4.50;;
1949;SDS011;975;48.760;9.152;2023-06-22T13:40:23;9.68;;;4.03;;
1949;SDS011;975;48.760;9.152;2023-06-22T13:42:51;12.90;;;5.00;;
1949;SDS011;975;48.760;9.152;2023-06-22T13:45:18;10.13;;;5.72;;
1949;SDS011;975;48.760;9.152;2023-06-22T13:47:46;11.55;;;4.82;;
1949;SDS011;975;48.760;9.152;2023-06-22T13:50:15;13.65;;;5.47;;
1949;SDS011;975;48.760;9.152;2023-06-22T13:52:43;13.15;;;4.88;;
1949;SDS011;975;48.760;9.152;2023-06-22T13:55:10;14.43;;;5.20;;
1949;SDS011;975;48.760;9.152;2023-06-22T13:57:40;10.35;;;4.57;;
1949;SDS011;975;48.760;9.152;2023-06-22T14:00:08;10.70;;;4.90;;
1949;SDS011;975;48.760;9.152;2023-06-22T14:02:37;8.82;;;4.70;;
1949;SDS011;975;48.760;9.152;2023-06-22T14:05:06;10.90;;;4.13;;
1949;SDS011;975;48.760;9.152;2023-06-22T14:07:41;7.47;;;4.68;;
1949;SDS011;975;48.760;9.152;2023-06-22T14:10:09;7.00;;;4.65;;
1949;SDS011;975;48.760;9.152;2023-06-22T14:12:37;9.25;;;4.93;;
1949;SDS011;975;48.760;9.152;2023-06-22T14:15:10;8.90;;;3.70;;
1949;SDS011;975;48.760;9.152;2023-06-22T14:17:37;6.68;;;3.85;;
1949;SDS011;975;48.760;9.152;2023-06-22T14:20:05;9.73;;;5.00;;
1949;SDS011;975;48.760;9.152;2023-06-22T14:22:34;11.85;;;3.85;;
1949;SDS011;975;48.760;9.152;2023-06-22T14:25:04;9.20;;;3.22;;
1949;SDS011;975;48.760;9.152;2023-06-22T14:27:31;14.15;;;4.25;;
1949;SDS011;975;48.760;9.152;2023-06-22T14:29:59;7.97;;;3.67;;
1949;SDS011;975;48.760;9.152;2023-06-22T14:32:27;9.10;;;3.92;;
1949;SDS011;975;48.760;9.152;2023-06-22T14:34:59;9.73;;;3.67;;
1949;SDS011;975;48.760;9.152;2023-06-22T14:37:26;10.32;;;3.92;;
1949;SDS011;975;48.760;9.152;2023-06-22T14:39:54;9.68;;;3.50;;
1949;SDS011;975;48.760;9.152;2023-06-22T14:42:23;10.60;;;3.85;;
1949;SDS011;975;48.760;9.152;2023-06-22T14:44:52;8.60;;;3.17;;
1949;SDS011;975;48.760;9.152;2023-06-22T14:47:19;8.65;;;3.38;;
1949;SDS011;975;48.760;9.152;2023-06-22T14:49:47;6.68;;;3.38;;
1949;SDS011;975;48.760;9.152;2023-06-22T14:52:15;10.10;;;3.10;;
1949;SDS011;975;48.760;9.152;2023-06-22T14:54:42;6.05;;;2.67;;
1949;SDS011;975;48.760;9.152;2023-06-22T14:57:13;10.30;;;2.90;;
1949;SDS011;975;48.760;9.152;2023-06-22T14:59:47;10.65;;;4.55;;
1949;SDS011;975;48.760;9.152;2023-06-22T15:02:17;7.45;;;2.35;;
1949;SDS011;975;48.760;9.152;2023-06-22T15:04:45;8.77;;;2.55;;
1949;SDS011;975;48.760;9.152;2023-06-22T15:07:12;8.88;;;2.90;;
1949;SDS011;975;48.760;9.152;2023-06-22T15:09:40;8.45;;;2.83;;
1949;SDS011;975;48.760;9.152;2023-06-22T15:12:10;9.40;;;2.85;;
1949;SDS011;975;48.760;9.152;2023-06-22T15:14:41;10.38;;;2.60;;
1949;SDS011;975;48.760;9.152;2023-06-22T15:17:10;5.50;;;2.63;;
1949;SDS011;975;48.760;9.152;2023-06-22T15:19:42;9.80;;;2.72;;
1949;SDS011;975;48.760;9.152;2023-06-22T15:22:10;8.43;;;2.50;;
1949;SDS011;975;48.760;9.152;2023-06-22T15:24:43;9.70;;;2.85;;
1949;SDS011;975;48.760;9.152;2023-06-22T15:27:11;5.38;;;2.67;;
1949;SDS011;975;48.760;9.152;2023-06-22T15:29:41;7.10;;;3.53;;
1949;SDS011;975;48.760;9.152;2023-06-22T15:32:10;10.15;;;3.13;;
1949;SDS011;975;48.760;9.152;2023-06-22T15:34:38;6.22;;;2.60;;
1949;SDS011;975;48.760;9.152;2023-06-22T15:37:05;7.25;;;3.08;;
1949;SDS011;975;48.760;9.152;2023-06-22T15:39:38;7.50;;;2.40;;
1949;SDS011;975;48.760;9.152;2023-06-22T15:42:06;8.35;;;3.10;;
1949;SDS011;975;48.760;9.152;2023-06-22T15:44:33;6.72;;;2.33;;
1949;SDS011;975;48.760;9.152;2023-06-22T15:47:01;5.28;;;3.03;;
1949;SDS011;975;48.760;9.152;2023-06-22T15:49:38;9.35;;;3.08;;
1949;SDS011;975;48.760;9.152;2023-06-22T15:52:05;7.07;;;2.80;;
1949;SDS011;975;48.760;9.152;2023-06-22T15:54:36;6.57;;;2.83;;
1949;SDS011;975;48.760;9.152;2023-06-22T15:57:04;9.20;;;2.47;;
1949;SDS011;975;48.760;9.152;2023-06-22T15:59:38;6.03;;;2.78;;
1949;SDS011;975;48.760;9.152;2023-06-22T16:02:06;8.20;;;3.20;;
1949;SDS011;975;48.760;9.152;2023-06-22T16:04:35;9.60;;;2.78;;
1949;SDS011;975;48.760;9.152;2023-06-22T16:07:06;6.72;;;2.95;;
1949;SDS011;975;48.760;9.152;2023-06-22T16:09:39;6.40;;;2.53;;
1949;SDS011;975;48.760;9.152;2023-06-22T16:12:10;7.90;;;2.50;;
1949;SDS011;975;48.760;9.152;2023-06-22T16:14:37;7.95;;;2.80;;
1949;SDS011;975;48.760;9.152;2023-06-22T16:17:18;7.80;;;2.42;;
1949;SDS011;975;48.760;9.152;2023-06-22T16:19:49;6.97;;;3.10;;
1949;SDS011;975;48.760;9.152;2023-06-22T16:22:20;8.30;;;3.28;;
1949;SDS011;975;48.760;9.152;2023-06-22T16:24:47;7.35;;;2.80;;
1949;SDS011;975;48.760;9.152;2023-06-22T16:27:15;9.55;;;3.17;;
1949;SDS011;975;48.760;9.152;2023-06-22T16:29:46;8.93;;;2.55;;
1949;SDS011;975;48.760;9.152;2023-06-22T16:32:13;8.95;;;2.85;;
1949;SDS011;975;48.760;9.152;2023-06-22T16:34:43;8.48;;;2.70;;
1949;SDS011;975;48.760;9.152;2023-06-22T16:37:20;7.13;;;2.15;;
1949;SDS011;975;48.760;9.152;2023-06-22T16:39:47;4.78;;;2.50;;
1949;SDS011;975;48.760;9.152;2023-06-22T16:42:26;6.22;;;2.13;;
1949;SDS011;975;48.760;9.152;2023-06-22T16:44:56;6.50;;;2.40;;
1949;SDS011;975;48.760;9.152;2023-06-22T16:47:24;7.70;;;2.50;;
1949;SDS011;975;48.760;9.152;2023-06-22T16:49:55;8.88;;;2.40;;
1949;SDS011;975;48.760;9.152;2023-06-22T16:52:28;4.05;;;2.03;;
1949;SDS011;975;48.760;9.152;2023-06-22T16:54:56;6.55;;;2.95;;
1949;SDS011;975;48.760;9.152;2023-06-22T16:57:24;7.45;;;2.65;;
1949;SDS011;975;48.760;9.152;2023-06-22T16:59:57;9.70;;;2.40;;
1949;SDS011;975;48.760;9.152;2023-06-22T17:02:25;5.07;;;2.70;;
1949;SDS011;975;48.760;9.152;2023-06-22T17:04:53;10.15;;;2.22;;
1949;SDS011;975;48.760;9.152;2023-06-22T17:07:22;8.15;;;2.78;;
1949;SDS011;975;48.760;9.152;2023-06-22T17:09:56;5.20;;;2.30;;
1949;SDS011;975;48.760;9.152;2023-06-22T17:26:01;5.53;;;2.40;;
1949;SDS011;975;48.760;9.152;2023-06-22T17:31:12;8.50;;;2.70;;
1949;SDS011;975;48.760;9.152;2023-06-22T17:33:39;5.07;;;2.53;;
1949;SDS011;975;48.760;9.152;2023-06-22T17:36:10;4.13;;;2.03;;
1949;SDS011;975;48.760;9.152;2023-06-22T17:38:39;5.20;;;2.33;;
1949;SDS011;975;48.760;9.152;2023-06-22T17:41:22;10.60;;;2.70;;
1949;SDS011;975;48.760;9.152;2023-06-22T17:43:58;6.65;;;1.85;;
1949;SDS011;975;48.760;9.152;2023-06-22T17:46:33;8.57;;;2.22;;
1949;SDS011;975;48.760;9.152;2023-06-22T17:49:08;5.30;;;1.77;;
1949;SDS011;975;48.760;9.152;2023-06-22T17:51:39;5.80;;;2.05;;
1949;SDS011;975;48.760;9.152;2023-06-22T17:54:10;6.03;;;1.67;;
1949;SDS011;975;48.760;9.152;2023-06-22T17:56:40;10.10;;;2.15;;
1949;SDS011;975;48.760;9.152;2023-06-22T17:59:07;5.80;;;2.35;;
1949;SDS011;975;48.760;9.152;2023-06-22T18:01:43;7.57;;;2.45;;
1949;SDS011;975;48.760;9.152;2023-06-22T18:04:14;8.63;;;1.70;;
1949;SDS011;975;48.760;9.152;2023-06-22T18:06:48;7.57;;;2.00;;
1949;SDS011;975;48.760;9.152;2023-06-22T18:11:48;2.95;;;1.70;;
1949;SDS011;975;48.760;9.152;2023-06-22T18:14:17;7.53;;;1.95;;
1949;SDS011;975;48.760;9.152;2023-06-22T18:16:45;4.65;;;1.80;;
1949;SDS011;975;48.760;9.152;2023-06-22T18:19:13;5.13;;;2.28;;
1949;SDS011;975;48.760;9.152;2023-06-22T18:21:41;5.07;;;2.00;;
1949;SDS011;975;48.760;9.152;2023-06-22T18:24:11;6.57;;;2.08;;
1949;SDS011;975;48.760;9.152;2023-06-22T18:26:39;5.45;;;2.35;;
1949;SDS011;975;48.760;9.152;2023-06-22T18:29:09;4.75;;;1.60;;
1949;SDS011;975;48.760;9.152;2023-06-22T18:31:37;4.55;;;1.35;;
1949;SDS011;975;48.760;9.152;2023-06-22T18:34:12;5.63;;;1.80;;
1949;SDS011;975;48.760;9.152;2023-06-22T18:36:45;7.80;;;1.60;;
1949;SDS011;975;48.760;9.152;2023-06-22T18:39:13;4.30;;;1.65;;
1949;SDS011;975;48.760;9.152;2023-06-22T18:41:41;7.78;;;1.40;;
1949;SDS011;975;48.760;9.152;2023-06-22T18:44:17;5.07;;;1.80;;
1949;SDS011;975;48.760;9.152;2023-06-22T18:46:48;7.07;;;1.83;;
1949;SDS011;975;48.760;9.152;2023-06-22T18:49:16;3.95;;;1.60;;
1949;SDS011;975;48.760;9.152;2023-06-22T18:51:53;2.40;;;1.25;;
1949;SDS011;975;48.760;9.152;2023-06-22T18:54:21;2.90;;;1.60;;
1949;SDS011;975;48.760;9.152;2023-06-22T18:56:56;5.90;;;1.95;;
1949;SDS011;975;48.760;9.152;2023-06-22T19:02:14;3.53;;;1.50;;
1949;SDS011;975;48.760;9.152;2023-06-22T19:04:42;5.43;;;1.65;;
1949;SDS011;975;48.760;9.152;2023-06-22T19:07:16;7.07;;;1.63;;
1949;SDS011;975;48.760;9.152;2023-06-22T19:09:47;4.70;;;1.30;;
1949;SDS011;975;48.760;9.152;2023-06-22T19:12:34;3.58;;;1.60;;
1949;SDS011;975;48.760;9.152;2023-06-22T19:15:11;5.22;;;1.58;;
1949;SDS011;975;48.760;9.152;2023-06-22T19:17:42;4.05;;;1.50;;
1949;SDS011;975;48.760;9.152;2023-06-22T19:20:11;3.70;;;1.55;;
1949;SDS011;975;48.760;9.152;2023-06-22T19:22:55;6.50;;;2.05;;
1949;SDS011;975;48.760;9.152;2023-06-22T19:25:25;2.63;;;1.40;;
1949;SDS011;975;48.760;9.152;2023-06-22T19:27:53;4.70;;;1.67;;
1949;SDS011;975;48.760;9.152;2023-06-22T19:30:21;4.47;;;1.75;;
1949;SDS011;975;48.760;9.152;2023-06-22T19:32:50;4.35;;;2.10;;
1949;SDS011;975;48.760;9.152;2023-06-22T19:35:19;8.68;;;1.90;;
1949;SDS011;975;48.760;9.152;2023-06-22T19:37:47;2.83;;;1.60;;
1949;SDS011;975;48.760;9.152;2023-06-22T19:40:15;4.22;;;2.13;;
1949;SDS011;975;48.760;9.152;2023-06-22T19:42:43;7.40;;;2.05;;
1949;SDS011;975;48.760;9.152;2023-06-22T19:45:14;7.78;;;1.58;;
1949;SDS011;975;48.760;9.152;2023-06-22T19:47:45;7.70;;;3.50;;
1949;SDS011;975;48.760;9.152;2023-06-22T19:50:21;4.07;;;1.50;;
1949;SDS011;975;48.760;9.152;2023-06-22T19:52:49;5.10;;;1.85;;
1949;SDS011;975;48.760;9.152;2023-06-22T19:55:17;6.60;;;2.20;;
1949;SDS011;975;48.760;9.152;2023-06-22T19:57:47;3.92;;;2.20;;
1949;SDS011;975;48.760;9.152;2023-06-22T20:00:19;5.07;;;2.35;;
1949;SDS011;975;48.760;9.152;2023-06-22T20:02:49;5.22;;;2.10;;
1949;SDS011;975;48.760;9.152;2023-06-22T20:05:19;4.97;;;2.25;;
1949;SDS011;975;48.760;9.152;2023-06-22T20:07:48;9.35;;;2.55;;
1949;SDS011;975;48.760;9.152;2023-06-22T20:10:17;6.80;;;2.47;;
1949;SDS011;975;48.760;9.152;2023-06-22T20:12:47;6.03;;;2.20;;
1949;SDS011;975;48.760;9.152;2023-06-22T20:15:22;3.83;;;2.25;;
1949;SDS011;975;48.760;9.152;2023-06-22T20:17:54;3.53;;;2.08;;
1949;SDS011;975;48.760;9.152;2023-06-22T20:20:22;4.53;;;1.90;;
1949;SDS011;975;48.760;9.152;2023-06-22T20:22:53;7.15;;;2.45;;
1949;SDS011;975;48.760;9.152;2023-06-22T20:25:22;8.43;;;2.38;;
1949;SDS011;975;48.760;9.152;2023-06-22T20:27:50;4.35;;;2.53;;
1949;SDS011;975;48.760;9.152;2023-06-22T20:30:19;7.40;;;2.30;;
1949;SDS011;975;48.760;9.152;2023-06-22T20:32:48;4.70;;;1.67;;
1949;SDS011;975;48.760;9.152;2023-06-22T20:35:16;4.70;;;1.98;;
1949;SDS011;975;48.760;9.152;2023-06-22T20:37:44;4.90;;;2.47;;
1949;SDS011;975;48.760;9.152;2023-06-22T20:40:13;3.92;;;2.20;;
1949;SDS011;975;48.760;9.152;2023-06-22T20:42:41;5.90;;;2.28;;
1949;SDS011;975;48.760;9.152;2023-06-22T20:45:09;6.18;;;2.35;;
1949;SDS011;975;48.760;9.152;2023-06-22T20:47:37;6.28;;;2.35;;